Time;durP1;ratioP1;P1;durP2;ratioP2;P2;SDS_P1;SDS_P2;PMS_P1;PMS_P2;Temp;Humidity;BMP_temperature;BMP_pressure;BME280_temperature;BME280_humidity;BME280_pressure;Samples;Min_cycle;Max_cycle;Signal;HPM_P1;HPM_P2
2023/11/22 00:00:13;;;;;;;1.60;1.10;;;17.60;57.20;;;;;;6136005;23;20127;-83
2023/11/22 00:02:40;;;;;;;1.95;1.17;;;17.60;57.10;;;;;;6135555;23;20511;-83
2023/11/22 00:05:09;;;;;;;4.05;1.20;;;17.60;57.00;;;;;;6161034;23;20131;-83
2023/11/22 00:07:35;;;;;;;2.60;1.30;;;17.60;57.30;;;;;;6160971;23;20168;-83
2023/11/22 00:10:01;;;;;;;3.67;1.42;;;17.60;56.90;;;;;;6161949;23;20203;-84
2023/11/22 00:12:36;;;;;;;1.92;1.10;;;17.60;57.10;;;;;;6163101;23;20163;-84
2023/11/22 00:15:05;;;;;;;2.85;1.20;;;17.60;57.10;;;;;;6151750;23;20563;-83
2023/11/22 00:17:31;;;;;;;1.13;1.00;;;17.60;57.10;;;;;;6161755;23;20171;-83
2023/11/22 00:20:05;;;;;;;1.48;1.10;;;17.60;57.10;;;;;;6137364;23;20155;-83
2023/11/22 00:22:32;;;;;;;3.20;1.20;;;17.60;57.20;;;;;;6136839;23;20186;-83
2023/11/22 00:24:58;;;;;;;2.13;1.35;;;17.60;57.20;;;;;;6161222;23;20136;-83
2023/11/22 00:27:24;;;;;;;2.67;1.40;;;17.50;57.00;;;;;;6135532;23;20143;-83
2023/11/22 00:29:50;;;;;;;2.70;1.10;;;17.60;57.20;;;;;;6135285;23;20128;-83
2023/11/22 00:32:16;;;;;;;3.63;1.20;;;17.60;56.90;;;;;;6136482;23;20186;-83
2023/11/22 00:34:43;;;;;;;1.92;0.98;;;17.60;57.00;;;;;;6163316;23;20218;-83
2023/11/22 00:37:15;;;;;;;1.30;1.13;;;17.60;57.00;;;;;;6137962;23;20191;-82
2023/11/22 00:39:41;;;;;;;1.77;1.30;;;17.60;56.90;;;;;;6138607;23;20131;-82
2023/11/22 00:42:07;;;;;;;2.67;0.82;;;17.60;57.00;;;;;;6164086;23;20135;-82
2023/11/22 00:44:36;;;;;;;2.65;1.63;;;17.60;57.00;;;;;;6160777;23;20144;-82
2023/11/22 00:47:07;;;;;;;2.10;1.63;;;17.50;57.20;;;;;;6163103;23;20136;-82
2023/11/22 00:49:33;;;;;;;2.05;1.20;;;17.50;57.10;;;;;;6161146;23;20144;-82
2023/11/22 00:52:02;;;;;;;1.45;1.00;;;17.50;57.00;;;;;;6162990;23;20132;-84
2023/11/22 00:54:29;;;;;;;2.00;1.40;;;17.50;57.10;;;;;;6135519;23;20163;-83
2023/11/22 00:57:00;;;;;;;2.28;1.17;;;17.50;57.10;;;;;;6136534;23;20190;-83
2023/11/22 00:59:26;;;;;;;2.65;1.20;;;17.50;57.10;;;;;;6135739;23;20165;-82
2023/11/22 01:01:56;;;;;;;1.73;1.20;;;17.50;57.00;;;;;;6163657;23;20207;-82
2023/11/22 01:04:22;;;;;;;3.20;1.02;;;17.50;57.00;;;;;;6110455;23;20178;-82
2023/11/22 01:06:52;;;;;;;1.25;1.00;;;17.60;57.00;;;;;;6163091;23;20163;-82
2023/11/22 01:14:29;;;;;;;2.33;1.30;;;17.50;57.00;;;;;;6199372;23;20202;-83
2023/11/22 01:16:59;;;;;;;4.85;1.42;;;17.50;57.10;;;;;;6193568;23;20567;-82
2023/11/22 01:19:26;;;;;;;1.38;1.25;;;17.50;57.00;;;;;;6173137;23;20202;-82
2023/11/22 01:21:51;;;;;;;3.30;1.30;;;17.50;57.10;;;;;;6166082;23;20525;-82
2023/11/22 01:24:21;;;;;;;2.10;1.30;;;17.40;57.10;;;;;;6192930;23;20143;-83
2023/11/22 01:26:48;;;;;;;1.77;1.00;;;17.40;57.00;;;;;;6093372;23;20241;-83
2023/11/22 01:29:14;;;;;;;2.25;1.30;;;17.40;57.10;;;;;;6142158;23;20139;-83
2023/11/22 01:31:41;;;;;;;2.97;1.02;;;17.40;57.10;;;;;;6166437;23;20201;-83
2023/11/22 01:34:11;;;;;;;1.15;0.93;;;17.40;57.20;;;;;;6193449;23;20153;-83
2023/11/22 01:36:43;;;;;;;2.10;0.93;;;17.40;57.10;;;;;;6117075;23;20186;-83
2023/11/22 01:39:10;;;;;;;2.25;0.95;;;17.40;57.00;;;;;;6167083;23;20181;-83
2023/11/22 01:41:36;;;;;;;1.25;1.00;;;17.40;57.00;;;;;;6193709;23;20131;-83
2023/11/22 01:49:03;;;;;;;2.55;1.00;;;17.40;57.00;;;;;;6174689;22;20209;-83
2023/11/22 01:51:30;;;;;;;2.92;1.30;;;17.40;57.10;;;;;;6142325;23;20584;-83
2023/11/22 01:53:56;;;;;;;2.17;1.20;;;17.30;57.00;;;;;;6167733;23;20558;-83
2023/11/22 01:56:26;;;;;;;1.30;1.08;;;17.40;56.90;;;;;;6193106;23;20167;-83
2023/11/22 01:58:56;;;;;;;2.00;1.15;;;17.40;57.00;;;;;;6116433;23;20154;-82
2023/11/22 02:01:22;;;;;;;1.20;1.10;;;17.40;57.10;;;;;;6093322;23;20668;-83
2023/11/22 02:03:48;;;;;;;3.55;1.23;;;17.40;57.00;;;;;;6167722;23;20131;-83
2023/11/22 02:06:21;;;;;;;4.00;1.30;;;17.30;56.90;;;;;;6167196;23;20137;-83
2023/11/22 02:08:48;;;;;;;1.58;1.08;;;17.40;56.80;;;;;;6117271;23;20190;-83
2023/11/22 02:11:16;;;;;;;1.70;1.10;;;17.40;57.00;;;;;;6167424;23;20150;-83
2023/11/22 02:13:48;;;;;;;3.53;1.20;;;17.40;57.00;;;;;;6194368;23;20578;-83
2023/11/22 02:16:21;;;;;;;4.15;1.30;;;17.30;56.80;;;;;;6094170;23;20150;-84
2023/11/22 02:21:23;;;;;;;1.30;1.10;;;17.30;57.60;;;;;;6190024;23;20264;-83
2023/11/22 02:23:49;;;;;;;1.30;1.08;;;17.30;57.00;;;;;;6166581;23;20128;-83
2023/11/22 02:26:20;;;;;;;1.38;0.90;;;17.30;57.10;;;;;;6193402;23;20138;-83
2023/11/22 02:28:50;;;;;;;1.58;1.10;;;17.30;57.10;;;;;;6117101;23;20151;-83
2023/11/22 02:31:16;;;;;;;3.05;1.20;;;17.30;57.10;;;;;;6141455;23;20159;-84
2023/11/22 02:33:46;;;;;;;2.38;1.17;;;17.30;57.10;;;;;;6166562;23;20466;-83
2023/11/22 02:36:15;;;;;;;2.65;1.25;;;17.30;56.90;;;;;;6165614;23;20154;-83
2023/11/22 02:38:47;;;;;;;2.50;1.15;;;17.40;57.00;;;;;;6165207;23;20158;-83
2023/11/22 02:41:18;;;;;;;1.42;1.00;;;17.30;56.90;;;;;;6165515;23;20165;-83
2023/11/22 02:43:45;;;;;;;1.42;1.20;;;17.40;57.10;;;;;;6118320;23;20620;-83
2023/11/22 02:46:11;;;;;;;2.30;1.30;;;17.30;57.10;;;;;;6142919;23;20222;-83
2023/11/22 02:48:37;;;;;;;1.10;1.00;;;17.30;57.00;;;;;;6166916;23;20566;-83
2023/11/22 02:51:07;;;;;;;2.67;1.23;;;17.30;57.00;;;;;;6194183;23;20153;-83
2023/11/22 02:53:37;;;;;;;1.95;1.05;;;17.30;56.90;;;;;;6140601;23;20154;-83
2023/11/22 02:56:07;;;;;;;1.60;1.08;;;17.30;56.90;;;;;;6177979;23;20207;-83
2023/11/22 02:58:34;;;;;;;2.15;1.20;;;17.30;56.90;;;;;;6166486;23;20166;-83
2023/11/22 03:01:01;;;;;;;2.17;1.30;;;17.30;56.90;;;;;;6167168;23;20139;-83
2023/11/22 03:03:34;;;;;;;1.52;1.20;;;17.30;56.80;;;;;;6142090;23;20154;-83
2023/11/22 03:06:04;;;;;;;1.17;0.95;;;17.30;57.00;;;;;;6141844;23;20151;-83
2023/11/22 03:08:34;;;;;;;1.83;1.20;;;17.30;57.10;;;;;;6167245;23;20205;-83
2023/11/22 03:11:02;;;;;;;2.08;1.25;;;17.30;57.00;;;;;;6118915;23;20571;-83
2023/11/22 03:16:00;;;;;;;1.67;1.30;;;17.30;56.80;;;;;;6196343;23;20672;-83
2023/11/22 03:18:28;;;;;;;1.52;1.00;;;17.20;56.90;;;;;;6144808;23;20167;-83
2023/11/22 03:20:59;;;;;;;1.90;1.10;;;17.20;57.00;;;;;;6144413;23;20150;-83
2023/11/22 03:23:26;;;;;;;2.05;1.00;;;17.30;56.80;;;;;;6097334;23;20507;-83
2023/11/22 03:25:51;;;;;;;1.67;1.17;;;17.30;56.80;;;;;;6169930;23;20131;-83
2023/11/22 03:28:22;;;;;;;1.75;1.30;;;17.20;56.80;;;;;;6169693;23;20186;-84
2023/11/22 03:30:50;;;;;;;3.97;1.42;;;17.30;57.00;;;;;;6168874;23;20181;-83
2023/11/22 03:33:18;;;;;;;1.30;0.80;;;17.30;56.90;;;;;;6119680;23;20489;-83
2023/11/22 03:35:48;;;;;;;1.27;0.95;;;17.20;56.80;;;;;;6168481;23;20197;-85
2023/11/22 03:38:14;;;;;;;1.75;1.27;;;17.30;56.80;;;;;;6168497;23;20221;-83
2023/11/22 03:40:40;;;;;;;2.20;1.20;;;17.30;56.90;;;;;;6194675;23;20158;-84
2023/11/22 03:43:09;;;;;;;1.40;1.00;;;17.30;56.80;;;;;;6144921;23;20147;-83
2023/11/22 03:45:37;;;;;;;1.00;0.90;;;17.20;56.70;;;;;;6169537;23;20137;-84
2023/11/22 03:50:28;;;;;;;2.72;1.20;;;17.20;56.90;;;;;;6178443;23;20206;-82
2023/11/22 03:52:54;;;;;;;1.63;1.00;;;17.20;56.80;;;;;;6195973;23;20565;-83
2023/11/22 03:55:20;;;;;;;1.73;0.90;;;17.20;57.00;;;;;;6193352;23;20131;-82
2023/11/22 03:57:46;;;;;;;1.88;1.10;;;17.20;57.00;;;;;;6194973;23;20587;-82
2023/11/22 04:00:16;;;;;;;1.65;1.30;;;17.20;56.90;;;;;;6169210;23;20138;-82
2023/11/22 04:02:47;;;;;;;1.92;0.85;;;17.20;56.80;;;;;;6118572;23;20155;-82
2023/11/22 04:05:19;;;;;;;1.20;1.08;;;17.20;57.00;;;;;;6167561;23;20177;-83
2023/11/22 04:07:49;;;;;;;1.42;1.00;;;17.20;56.70;;;;;;6142742;23;20155;-82
2023/11/22 04:12:47;;;;;;;1.60;1.08;;;17.20;56.80;;;;;;6190994;23;20232;-83
2023/11/22 04:15:18;;;;;;;2.75;1.10;;;17.20;56.70;;;;;;6117554;23;20150;-83
2023/11/22 04:17:47;;;;;;;1.63;1.10;;;17.10;56.80;;;;;;6166905;23;20222;-83
2023/11/22 04:20:19;;;;;;;1.77;1.25;;;17.20;56.70;;;;;;6167231;23;20178;-82
2023/11/22 04:22:50;;;;;;;1.42;1.10;;;17.20;56.70;;;;;;6141045;23;20234;-82
2023/11/22 04:25:19;;;;;;;2.20;1.15;;;17.20;56.70;;;;;;6165939;23;20159;-83
2023/11/22 04:27:49;;;;;;;2.13;1.15;;;17.10;56.70;;;;;;6140964;23;20154;-83
2023/11/22 04:30:18;;;;;;;1.30;1.17;;;17.20;56.60;;;;;;6165936;23;20158;-83
2023/11/22 04:32:47;;;;;;;1.85;1.10;;;17.20;56.60;;;;;;6140892;23;20161;-82
2023/11/22 04:35:16;;;;;;;1.33;1.08;;;17.20;56.80;;;;;;6141634;23;20155;-82
2023/11/22 04:37:46;;;;;;;1.25;0.90;;;17.20;56.60;;;;;;6165681;23;20273;-83
2023/11/22 04:40:15;;;;;;;1.42;1.10;;;17.20;56.60;;;;;;6140963;23;20159;-82
2023/11/22 04:42:44;;;;;;;1.42;1.10;;;17.20;56.60;;;;;;6165892;23;20279;-83
2023/11/22 04:47:35;;;;;;;1.65;1.10;;;17.10;56.60;;;;;;6189447;23;20214;-83
2023/11/22 04:50:02;;;;;;;1.25;1.02;;;17.10;56.80;;;;;;6166958;23;20158;-83
2023/11/22 04:54:58;;;;;;;1.60;1.27;;;17.10;56.60;;;;;;6221840;23;20220;-82
2023/11/22 04:57:25;;;;;;;2.20;1.30;;;17.10;56.60;;;;;;6170342;23;20192;-82
2023/11/22 04:59:53;;;;;;;1.63;1.00;;;17.10;56.60;;;;;;6121491;23;20161;-83
2023/11/22 05:02:20;;;;;;;2.63;1.20;;;17.10;56.70;;;;;;6146066;23;20147;-83
2023/11/22 05:04:52;;;;;;;2.20;1.10;;;17.10;56.60;;;;;;6170358;23;20154;-83
2023/11/22 05:07:22;;;;;;;1.50;1.00;;;17.10;56.70;;;;;;6171710;23;20208;-83
2023/11/22 05:09:49;;;;;;;1.75;1.13;;;17.10;56.60;;;;;;6147183;23;20481;-82
2023/11/22 05:12:20;;;;;;;2.42;0.88;;;17.10;56.50;;;;;;6169937;23;20177;-83
2023/11/22 05:14:50;;;;;;;1.10;0.95;;;17.10;56.60;;;;;;6170935;23;20785;-83
2023/11/22 05:17:22;;;;;;;1.95;1.17;;;17.10;56.50;;;;;;6146093;23;20185;-83
2023/11/22 05:19:53;;;;;;;1.58;1.00;;;17.10;56.70;;;;;;6145817;23;20676;-82
2023/11/22 05:22:23;;;;;;;1.38;1.13;;;17.10;56.70;;;;;;6170518;23;20229;-83
2023/11/22 05:24:53;;;;;;;1.25;1.15;;;17.10;57.20;;;;;;6170814;23;20592;-83
2023/11/22 05:27:20;;;;;;;1.52;1.35;;;17.10;56.60;;;;;;6121244;23;20264;-82
2023/11/22 05:29:47;;;;;;;2.13;1.17;;;17.10;56.70;;;;;;6170506;23;20213;-83
2023/11/22 05:32:13;;;;;;;2.00;1.20;;;17.10;56.60;;;;;;6170439;23;20157;-82
2023/11/22 05:34:40;;;;;;;1.42;0.90;;;17.10;56.60;;;;;;6170681;23;20157;-83
2023/11/22 05:37:11;;;;;;;1.90;1.13;;;17.10;56.60;;;;;;6223149;23;20620;-83
2023/11/22 05:39:42;;;;;;;2.40;1.10;;;17.10;56.60;;;;;;6170013;23;20528;-82
2023/11/22 05:42:09;;;;;;;1.75;1.10;;;17.10;56.60;;;;;;6169606;23;20171;-83
2023/11/22 05:44:35;;;;;;;2.05;1.20;;;17.10;56.60;;;;;;6222572;23;20466;-82
2023/11/22 05:47:04;;;;;;;2.60;1.13;;;17.10;56.50;;;;;;6196013;23;20141;-83
2023/11/22 05:49:30;;;;;;;2.35;1.05;;;17.10;56.50;;;;;;6169223;23;20158;-83
2023/11/22 05:51:56;;;;;;;1.63;1.08;;;17.00;56.60;;;;;;6222535;23;20130;-82
2023/11/22 05:54:29;;;;;;;1.63;1.30;;;17.10;56.50;;;;;;6222250;23;20194;-82
2023/11/22 05:56:55;;;;;;;1.40;1.08;;;17.10;56.70;;;;;;6119677;23;20244;-83
2023/11/22 05:59:26;;;;;;;2.15;1.15;;;17.10;56.60;;;;;;6222403;23;20165;-83
2023/11/22 06:01:52;;;;;;;1.88;1.15;;;17.10;56.50;;;;;;6144854;23;20154;-83
2023/11/22 06:04:19;;;;;;;1.63;1.23;;;17.00;56.40;;;;;;6220946;23;20596;-83
2023/11/22 06:06:44;;;;;;;2.05;1.10;;;17.00;56.40;;;;;;6193871;23;20686;-82
2023/11/22 06:09:17;;;;;;;1.10;1.00;;;17.00;56.40;;;;;;6218798;23;20209;-82
2023/11/22 06:11:49;;;;;;;2.42;0.90;;;17.00;56.20;;;;;;6142255;23;20232;-83
2023/11/22 06:14:21;;;;;;;2.35;1.17;;;17.00;56.20;;;;;;6167802;23;20150;-82
2023/11/22 06:16:53;;;;;;;1.75;1.00;;;17.10;56.40;;;;;;6166974;23;20182;-83
2023/11/22 06:19:25;;;;;;;1.30;1.20;;;17.10;56.40;;;;;;6191485;23;20154;-83
2023/11/22 06:21:57;;;;;;;2.17;1.10;;;17.00;56.30;;;;;;6192665;23;20150;-82
2023/11/22 06:24:31;;;;;;;2.00;1.42;;;17.10;56.40;;;;;;6166243;23;20162;-83
2023/11/22 06:27:03;;;;;;;1.25;1.13;;;17.00;56.20;;;;;;6153583;23;20236;-82
2023/11/22 06:29:29;;;;;;;1.02;0.90;;;17.10;56.30;;;;;;6166235;23;20157;-83
2023/11/22 06:32:00;;;;;;;3.38;0.90;;;17.10;56.30;;;;;;6216577;23;20189;-82
2023/11/22 06:34:30;;;;;;;1.52;1.00;;;17.00;56.20;;;;;;6164390;23;20157;-82
2023/11/22 06:37:02;;;;;;;1.30;1.20;;;17.10;56.40;;;;;;6140565;23;20182;-82
2023/11/22 06:39:32;;;;;;;1.25;0.95;;;17.00;56.30;;;;;;6141472;23;20590;-83
2023/11/22 06:42:03;;;;;;;1.65;1.10;;;17.10;56.20;;;;;;6116398;23;20664;-83
2023/11/22 06:44:34;;;;;;;1.77;1.20;;;17.00;56.20;;;;;;6165793;23;20204;-83
2023/11/22 06:46:59;;;;;;;1.25;1.15;;;17.00;56.20;;;;;;6166969;23;20150;-83
2023/11/22 06:49:25;;;;;;;1.40;1.00;;;17.10;56.30;;;;;;6217395;23;20144;-83
2023/11/22 06:51:51;;;;;;;2.15;1.13;;;17.00;56.30;;;;;;6193229;23;20158;-83
2023/11/22 06:54:20;;;;;;;2.60;1.00;;;17.00;56.20;;;;;;6192071;23;20202;-83
2023/11/22 06:56:45;;;;;;;1.30;1.20;;;17.10;56.10;;;;;;6166870;23;20201;-84
2023/11/22 06:59:12;;;;;;;1.70;1.20;;;17.10;56.20;;;;;;6219011;23;20632;-83
2023/11/22 07:01:39;;;;;;;1.35;1.10;;;17.00;56.20;;;;;;6195149;23;20182;-83
2023/11/22 07:04:06;;;;;;;1.40;1.10;;;17.00;56.00;;;;;;6225533;23;20134;-83
2023/11/22 07:06:36;;;;;;;1.67;1.10;;;17.00;56.00;;;;;;6198291;23;20142;-83
2023/11/22 07:09:09;;;;;;;1.65;1.17;;;17.00;56.10;;;;;;6224565;23;20138;-83
2023/11/22 07:11:37;;;;;;;3.00;1.20;;;17.00;56.20;;;;;;6174521;23;20173;-83
2023/11/22 07:14:05;;;;;;;2.25;1.27;;;17.00;55.80;;;;;;6119160;23;20222;-83
2023/11/22 07:16:33;;;;;;;2.75;1.20;;;17.10;56.00;;;;;;6167274;23;20192;-82
2023/11/22 07:19:06;;;;;;;1.67;1.08;;;17.00;55.40;;;;;;6118778;23;20178;-83
2023/11/22 07:21:32;;;;;;;1.58;1.00;;;17.00;55.80;;;;;;6219619;23;20132;-84
2023/11/22 07:23:59;;;;;;;6.75;1.50;;;17.10;55.90;;;;;;6175084;23;20136;-84
2023/11/22 07:26:43;;;;;;;11.27;2.08;;;17.10;55.30;;;;;;6198987;23;20153;-81
2023/11/22 07:33:52;;;;;;;50.15;4.53;;;17.20;55.30;;;;;;6017313;23;20186;-82
2023/11/22 07:40:07;;;;;;;;;;;;;;;;;;;;;
2023/11/22 07:43:03;;;;;;;55.13;5.35;;;17.20;55.70;;;;;;5774267;24;20179;-86
2023/11/22 07:46:53;;;;;;;;;;;;;;;;;;;;;
2023/11/22 07:48:49;;;;;;;56.83;4.82;;;17.10;55.50;;;;;;5762529;24;20156;-85
2023/11/22 07:52:26;;;;;;;;;;;;;;;;;;;;;
2023/11/22 08:09:04;;;;;;;51.90;5.10;;;17.30;54.90;;;;;;5571992;25;20186;-86
2023/11/22 08:11:40;;;;;;;51.53;4.63;;;17.30;54.90;;;;;;5605449;25;20194;-85
2023/11/22 08:14:07;;;;;;;32.03;3.65;;;17.30;54.80;;;;;;5604831;25;20185;-86
2023/11/22 08:16:42;;;;;;;40.42;4.60;;;17.40;54.30;;;;;;5691921;25;20267;-86
2023/11/22 08:19:09;;;;;;;37.53;4.75;;;17.30;55.00;;;;;;5733489;25;20192;-86
2023/11/22 08:21:42;;;;;;;39.55;4.30;;;17.30;55.10;;;;;;5742569;24;20196;-87
2023/11/22 08:24:12;;;;;;;35.75;3.70;;;17.30;55.30;;;;;;5797448;24;20159;-86
2023/11/22 08:26:40;;;;;;;29.23;4.05;;;17.30;55.30;;;;;;5834810;24;20163;-87
2023/11/22 08:29:12;;;;;;;35.90;3.83;;;17.20;55.00;;;;;;5830963;24;20275;-86
2023/11/22 08:31:50;;;;;;;34.78;4.35;;;17.20;54.90;;;;;;5838548;24;20226;-86
2023/11/22 08:34:18;;;;;;;41.78;4.63;;;17.30;55.20;;;;;;5833643;24;20162;-87
2023/11/22 08:36:48;;;;;;;34.63;4.30;;;17.20;55.00;;;;;;5904658;24;20190;-86
2023/11/22 08:39:19;;;;;;;37.47;4.05;;;17.30;54.80;;;;;;5927358;24;20188;-86
2023/11/22 08:41:53;;;;;;;24.23;3.72;;;17.30;54.90;;;;;;5916788;24;20165;-86
2023/11/22 08:44:24;;;;;;;29.13;3.72;;;17.30;54.30;;;;;;5870859;24;20217;-86
2023/11/22 08:46:50;;;;;;;43.10;4.63;;;17.30;54.10;;;;;;5871416;24;20161;-86
2023/11/22 08:49:19;;;;;;;28.13;3.83;;;17.40;54.80;;;;;;5897702;24;20157;-86
2023/11/22 08:51:48;;;;;;;29.55;3.58;;;17.30;54.70;;;;;;5859387;24;20169;-85
2023/11/22 08:54:23;;;;;;;28.67;4.13;;;17.40;54.50;;;;;;5833932;24;20230;-87
2023/11/22 08:57:01;;;;;;;30.10;3.75;;;17.30;54.50;;;;;;5886502;24;20282;-86
2023/11/22 08:59:38;;;;;;;26.35;4.20;;;17.40;54.60;;;;;;5889775;24;20187;-86
2023/11/22 09:02:15;;;;;;;28.90;3.45;;;17.30;54.20;;;;;;5942362;24;20152;-87
2023/11/22 09:04:41;;;;;;;23.08;3.53;;;17.40;54.20;;;;;;5965047;23;20178;-86
2023/11/22 09:07:16;;;;;;;21.73;3.45;;;17.50;54.10;;;;;;5980116;23;20140;-86
2023/11/22 09:09:44;;;;;;;27.42;4.15;;;17.40;54.20;;;;;;6026371;23;20185;-87
2023/11/22 09:12:12;;;;;;;28.88;4.03;;;17.50;54.40;;;;;;5987265;23;20755;-86
2023/11/22 09:14:45;;;;;;;25.05;3.10;;;17.50;54.20;;;;;;6010096;23;20162;-87
2023/11/22 09:17:17;;;;;;;27.77;3.40;;;17.50;54.30;;;;;;6033687;23;20196;-87
2023/11/22 09:19:44;;;;;;;27.30;3.47;;;17.50;54.30;;;;;;6008769;23;20238;-87
2023/11/22 09:22:17;;;;;;;28.08;4.05;;;17.50;53.40;;;;;;6003753;23;20159;-86
2023/11/22 09:24:44;;;;;;;29.30;3.55;;;17.50;54.90;;;;;;6053241;23;20189;-86
2023/11/22 09:27:17;;;;;;;33.33;3.95;;;17.50;53.90;;;;;;6034923;23;20184;-85
2023/11/22 09:29:58;;;;;;;27.45;3.08;;;17.60;54.10;;;;;;6036063;23;20246;-86
2023/11/22 09:32:42;;;;;;;23.17;2.85;;;17.50;54.30;;;;;;5959012;23;20161;-86
2023/11/22 09:36:00;;;;;;;31.48;3.30;;;17.60;54.20;;;;;;5949421;23;20155;-85
2023/11/22 09:38:52;;;;;;;34.58;3.33;;;17.60;54.10;;;;;;5998969;23;20176;-87
2023/11/22 09:41:35;;;;;;;24.65;3.72;;;17.60;54.40;;;;;;5978773;24;20172;-86
2023/11/22 09:44:06;;;;;;;28.65;3.15;;;17.60;54.50;;;;;;5970392;24;20232;-87
2023/11/22 09:46:39;;;;;;;23.23;2.90;;;17.70;53.90;;;;;;5947686;24;20160;-86
2023/11/22 09:53:05;;;;;;;22.05;3.30;;;17.70;54.10;;;;;;5931864;24;20232;-88
2023/11/22 09:59:34;;;;;;;24.67;3.05;;;17.60;54.40;;;;;;5888668;24;20166;-85
2023/11/22 10:02:56;;;;;;;28.95;3.45;;;17.70;54.10;;;;;;5862308;24;20177;-86
2023/11/22 10:05:44;;;;;;;24.95;3.53;;;17.70;54.20;;;;;;5813339;24;20236;-86
2023/11/22 10:08:11;;;;;;;21.30;2.97;;;17.70;54.60;;;;;;5830257;24;20197;-86
2023/11/22 10:10:51;;;;;;;;;;;;;;;;;;;;;
2023/11/22 10:13:22;;;;;;;29.58;4.15;;;17.60;54.70;;;;;;5806597;24;20238;-85
2023/11/22 10:16:15;;;;;;;24.02;2.97;;;17.80;54.20;;;;;;5853266;24;20162;-84
2023/11/22 10:18:52;;;;;;;24.05;2.80;;;17.70;54.40;;;;;;5802840;24;20165;-84
2023/11/22 10:21:31;;;;;;;21.10;3.13;;;17.60;54.80;;;;;;5888890;24;20154;-85
2023/11/22 10:26:49;;;;;;;16.83;3.20;;;17.60;54.80;;;;;;6167343;23;20276;-85
2023/11/22 10:29:18;;;;;;;21.52;3.00;;;17.60;55.50;;;;;;6132756;23;20146;-83
2023/11/22 10:31:47;;;;;;;22.40;2.88;;;17.60;55.00;;;;;;6094075;23;20148;-84
2023/11/22 10:35:57;;;;;;;;;;;;;;;;;;;;;
2023/11/22 10:41:31;;;;;;;25.83;3.47;;;17.60;54.80;;;;;;6101860;23;20190;-87
2023/11/22 10:43:59;;;;;;;13.57;2.42;;;17.50;55.00;;;;;;6089095;23;20166;-84
2023/11/22 10:46:31;;;;;;;17.30;2.88;;;17.60;55.10;;;;;;6027509;23;20880;-85
2023/11/22 10:49:17;;;;;;;21.02;2.65;;;17.70;55.20;;;;;;5948320;24;20199;-84
2023/11/22 10:52:03;;;;;;;15.32;2.60;;;17.60;55.10;;;;;;5944734;24;20157;-86
2023/11/22 10:54:48;;;;;;;;;;;;;;;;;;;;;
2023/11/22 10:57:51;;;;;;;17.73;2.88;;;17.60;55.10;;;;;;5841567;24;20199;-86
2023/11/22 11:00:18;;;;;;;16.75;2.58;;;17.60;55.10;;;;;;5817880;24;20166;-86
2023/11/22 11:02:51;;;;;;;15.80;2.50;;;17.70;55.10;;;;;;5817507;24;20164;-86
2023/11/22 11:05:28;;;;;;;15.48;2.30;;;17.60;55.10;;;;;;5793151;24;20163;-87
2023/11/22 11:28:42;;;;;;;13.90;2.40;;;17.70;54.70;;;;;;6165229;23;20169;-84
2023/11/22 11:31:09;;;;;;;19.27;2.83;;;17.60;54.70;;;;;;6175276;23;20183;-85
2023/11/22 11:33:57;;;;;;;11.27;2.17;;;17.60;54.70;;;;;;6092026;23;20179;-85
2023/11/22 11:36:32;;;;;;;17.13;3.08;;;17.70;54.80;;;;;;6151567;23;20139;-86
2023/11/22 11:39:18;;;;;;;9.50;2.20;;;17.60;54.80;;;;;;6103617;23;20155;-85
2023/11/22 11:44:30;;;;;;;14.43;2.53;;;17.60;54.80;;;;;;6194632;23;20213;-85
2023/11/22 11:47:16;;;;;;;11.75;2.58;;;17.60;55.00;;;;;;6132128;23;20151;-86
2023/11/22 12:00:20;;;;;;;11.32;2.60;;;17.70;54.50;;;;;;6170336;23;20257;-84
2023/11/22 12:02:48;;;;;;;12.18;2.45;;;17.70;54.80;;;;;;6077944;23;20155;-81
2023/11/22 12:05:21;;;;;;;9.75;1.88;;;17.70;54.80;;;;;;6116927;23;20156;-85
2023/11/22 12:08:05;;;;;;;12.90;2.00;;;17.60;54.40;;;;;;6069397;23;20156;-84
2023/11/22 12:10:48;;;;;;;8.60;1.60;;;17.70;54.40;;;;;;6142418;23;20147;-84
2023/11/22 12:13:18;;;;;;;12.63;1.92;;;17.70;54.30;;;;;;6076659;23;20295;-84
2023/11/22 12:16:35;;;;;;;12.93;2.47;;;17.80;54.30;;;;;;6055673;23;20177;-84
2023/11/22 12:18:56;;;;;;;8.90;1.88;;;17.80;54.50;;;;;;5994287;23;20162;-84
2023/11/22 12:25:19;;;;;;;13.60;2.05;;;17.80;54.80;;;;;;5876327;24;20203;-87
2023/11/22 12:27:53;;;;;;;10.43;2.30;;;17.80;54.80;;;;;;5841866;24;20165;-86
2023/11/22 12:30:36;;;;;;;7.20;2.13;;;17.80;54.70;;;;;;5860812;24;20158;-84
2023/11/22 12:33:07;;;;;;;8.70;2.20;;;17.80;54.60;;;;;;5855487;24;20508;-86
2023/11/22 12:35:36;;;;;;;11.50;2.03;;;17.80;54.00;;;;;;5840498;24;20161;-84
2023/11/22 12:38:35;;;;;;;6.85;2.05;;;17.90;54.20;;;;;;5863655;24;20639;-85
2023/11/22 12:41:45;;;;;;;6.57;1.98;;;17.90;54.20;;;;;;5873717;24;20164;-83
2023/11/22 12:44:14;;;;;;;6.90;1.60;;;17.90;54.00;;;;;;5885732;24;20154;-86
2023/11/22 12:47:11;;;;;;;;;;;;;;;;;;;;;
2023/11/22 12:49:58;;;;;;;5.40;1.70;;;18.10;53.50;;;;;;5837798;24;20181;-84
2023/11/22 12:52:35;;;;;;;11.60;1.70;;;18.10;53.40;;;;;;5859196;24;20154;-85
2023/11/22 12:55:12;;;;;;;7.88;1.90;;;18.00;53.70;;;;;;5880907;24;20161;-85
2023/11/22 12:57:48;;;;;;;;;;;;;;;;;;;;;
2023/11/22 13:00:23;;;;;;;7.57;1.67;;;18.00;54.30;;;;;;5957387;23;20221;-84
2023/11/22 13:02:54;;;;;;;6.13;1.95;;;17.80;54.30;;;;;;5994854;23;20158;-85
2023/11/22 13:05:23;;;;;;;5.43;1.40;;;17.80;54.20;;;;;;6001744;23;20157;-84
2023/11/22 13:08:00;;;;;;;5.93;1.73;;;17.80;54.10;;;;;;6022453;23;20214;-85
2023/11/22 13:10:53;;;;;;;9.30;1.90;;;17.70;54.40;;;;;;5979836;23;20205;-86
2023/11/22 13:13:50;;;;;;;8.20;2.03;;;17.80;54.50;;;;;;6000860;23;20653;-86
2023/11/22 13:16:43;;;;;;;;;;;;;;;;;;;;;
2023/11/22 13:19:51;;;;;;;5.95;2.08;;;17.70;54.70;;;;;;5948171;24;20260;-87
2023/11/22 13:22:51;;;;;;;;;;;;;;;;;;;;;
2023/11/22 13:26:05;;;;;;;;;;;;;;;;;;;;;
2023/11/22 13:28:34;;;;;;;8.10;2.05;;;17.80;54.10;;;;;;5848708;24;20178;-85
2023/11/22 13:31:04;;;;;;;6.35;1.70;;;17.80;54.00;;;;;;5817325;24;20266;-84
2023/11/22 13:33:29;;;;;;;5.20;1.52;;;17.80;54.10;;;;;;5820709;24;20190;-85
2023/11/22 13:35:58;;;;;;;6.88;1.70;;;17.90;53.90;;;;;;5798022;24;20215;-83
2023/11/22 13:38:24;;;;;;;7.65;1.45;;;17.90;53.80;;;;;;5797680;24;20267;-82
2023/11/22 13:40:53;;;;;;;6.10;1.80;;;17.90;53.80;;;;;;5797233;24;20164;-83
2023/11/22 13:43:25;;;;;;;6.15;1.90;;;17.90;53.70;;;;;;5778794;24;20164;-82
2023/11/22 13:45:51;;;;;;;7.15;2.17;;;17.90;53.70;;;;;;5800017;24;20155;-85
2023/11/22 13:48:25;;;;;;;8.25;1.88;;;17.80;53.70;;;;;;5821464;24;20171;-83
2023/11/22 13:50:55;;;;;;;5.65;1.70;;;17.90;53.90;;;;;;5852951;24;20165;-81
2023/11/22 13:53:29;;;;;;;6.35;1.70;;;17.90;53.90;;;;;;5882578;24;20303;-80
2023/11/22 13:56:00;;;;;;;8.13;1.85;;;17.90;53.80;;;;;;5903771;24;20196;-83
2023/11/22 13:58:30;;;;;;;6.25;1.70;;;17.80;54.20;;;;;;5908703;24;20189;-84
2023/11/22 14:01:05;;;;;;;8.63;1.75;;;17.80;54.40;;;;;;5935681;24;20164;-84
2023/11/22 14:03:33;;;;;;;4.82;1.58;;;17.70;54.40;;;;;;5889984;24;20156;-86
2023/11/22 14:06:04;;;;;;;7.53;1.63;;;17.70;54.40;;;;;;5912273;24;20260;-87
2023/11/22 14:08:54;;;;;;;4.13;1.52;;;17.70;54.10;;;;;;5960637;24;20163;-86
2023/11/22 14:11:55;;;;;;;5.25;1.50;;;17.80;54.10;;;;;;5968979;23;20163;-85
2023/11/22 14:14:21;;;;;;;7.20;2.03;;;17.80;54.40;;;;;;5946177;24;20559;-85
2023/11/22 14:16:48;;;;;;;9.07;2.15;;;17.80;54.30;;;;;;5935574;24;20188;-84
2023/11/22 14:19:14;;;;;;;5.20;1.60;;;17.80;54.30;;;;;;5934425;24;20197;-86
2023/11/22 14:21:42;;;;;;;4.50;1.40;;;17.80;54.20;;;;;;5910181;24;20152;-89
2023/11/22 14:24:08;;;;;;;4.57;1.52;;;17.70;54.00;;;;;;5890798;24;20167;-84
2023/11/22 14:26:34;;;;;;;5.22;1.40;;;17.80;54.00;;;;;;5954403;23;20195;-85
2023/11/22 14:29:07;;;;;;;8.60;1.70;;;17.80;54.10;;;;;;5999341;23;20154;-88
2023/11/22 14:31:33;;;;;;;7.63;2.20;;;17.80;53.90;;;;;;5948688;23;20161;-86
2023/11/22 14:34:00;;;;;;;2.50;1.30;;;17.80;54.20;;;;;;5992852;23;20174;-85
2023/11/22 14:39:49;;;;;;;6.88;1.58;;;17.80;54.10;;;;;;6038034;23;20141;-86
2023/11/22 14:43:07;;;;;;;6.13;1.60;;;17.80;54.10;;;;;;6020714;23;20171;-85
2023/11/22 14:45:11;;;;;;;5.47;1.50;;;17.80;54.20;;;;;;6014164;23;20162;-88
2023/11/22 14:47:48;;;;;;;5.07;1.35;;;17.90;54.20;;;;;;6020562;23;20142;-84
2023/11/22 14:50:15;;;;;;;8.63;1.52;;;17.90;54.10;;;;;;5988352;23;20169;-86
2023/11/22 14:52:51;;;;;;;;;;;;;;;;;;;;;
2023/11/22 14:55:28;;;;;;;3.65;1.33;;;17.90;54.10;;;;;;6021885;23;20590;-86
2023/11/22 14:58:06;;;;;;;6.80;1.65;;;18.00;54.10;;;;;;6001456;23;20624;-84
2023/11/22 15:00:53;;;;;;;5.45;1.52;;;17.90;53.90;;;;;;6029212;23;20193;-83
2023/11/22 15:03:20;;;;;;;6.40;1.40;;;17.90;54.10;;;;;;5999326;23;20721;-85
2023/11/22 15:06:07;;;;;;;4.82;1.38;;;18.00;54.20;;;;;;6001533;23;20154;-85
2023/11/22 15:08:34;;;;;;;4.30;1.48;;;17.90;54.10;;;;;;6068806;23;20228;-83